Station: Minlaton Airport

  Atmospheric Gas Attenuation - ITU Rec 676-11   --------------- db/100km ---------------
Date Time Temp RH % AH g/m3 Dew Point Wind Direction Speed kph Gust kph Barometer mB Rainfall Since 9am 24GHz 47GHz 76GHz 122GHz 134GHz 241GHz
14 23:50 11.2 92 9.33 9.9 32 33 1017.4 0 21.3 28.1 44.4 116.7 112.3 386.7
14 23:40 11.3 93 9.49 10.2 26 30 1017.5 0 21.6 28.3 45.0 118.4 114.4 394.1
14 23:30 11.3 93 9.49 10.2 28 33 1017.4 0 21.6 28.3 45.0 118.4 114.4 394.1
14 23:20 11.3 94 9.59 10.4 26 30 1017.5 0 21.8 28.5 45.5 119.5 115.8 399.0
14 23:10 11.4 94 9.65 10.5 22 26 1017.5 0 22.0 28.6 45.7 120.1 116.5 401.5
14 23:00 11.5 94 9.71 10.6 30 35 1017.2 0 22.1 28.6 45.9 120.6 117.2 403.9
14 22:50 11.7 93 9.73 10.6 26 32 1017.3 0 22.1 28.6 45.8 120.5 117.2 403.9
14 22:40 11.8 93 9.79 10.7 28 32 1017.2 0 22.2 28.7 46.0 121.0 117.9 406.3
14 22:30 11.9 92 9.74 10.6 26 32 1017 0 22.1 28.5 45.7 120.3 117.0 403.2
14 22:20 12.2 90 9.71 10.6 28 32 1016.7 0 22.0 28.4 45.4 119.4 116.1 400.1
14 22:10 12.4 89 9.73 10.6 32 37 1016.6 0 22.1 28.3 45.4 119.3 116.0 400.0
14 22:00 12.4 89 9.73 10.6 32 35 1016.5 0 22.1 28.3 45.4 119.3 116.0 400.0
14 21:50 12.5 89 9.79 10.7 28 32 1016.4 0 22.2 28.4 45.6 119.8 116.7 402.4
14 21:40 12.5 90 9.9 10.9 26 30 1016.2 0 22.4 28.6 46.0 121.1 118.3 407.7
14 21:30 12.5 90 9.9 10.9 26 30 1016.1 0 22.4 28.6 46.0 121.1 118.2 407.7
14 21:20 12.7 90 10.02 11.1 28 33 1015.9 0 22.7 28.7 46.4 122.1 119.6 412.5
14 21:10 12.8 90 10.08 11.2 30 35 1015.9 0 22.8 28.8 46.6 122.6 120.3 414.9
14 21:00 12.8 90 10.08 11.2 33 39 1015.8 0 22.8 28.8 46.6 122.6 120.3 414.9
14 20:50 12.8 91 10.19 11.4 35 41 1015.7 0 23.0 29.0 47.1 123.9 121.8 420.3
14 20:40 12.9 92 10.37 11.6 28 32 1015.7 0 23.4 29.2 47.8 125.8 124.2 428.7
14 20:30 12.9 92 10.37 11.6 35 39 1015.4 0 23.4 29.2 47.8 125.8 124.2 428.6
14 20:20 13.1 93 10.61 12 33 41 1015.5 0 23.9 29.6 48.7 128.2 127.3 439.5
14 20:10 13.3 94 10.86 12.4 32 37 1015.2 0 24.5 30.0 49.7 130.8 130.5 450.8
14 20:00 13.5 95 11.11 12.7 26 32 1015 0 25.0 30.3 50.6 133.3 133.8 462.2
14 19:50 12.5 93 10.23 11.4 19 20 1014.9 0 23.2 29.1 47.4 124.7 122.8 423.7
14 19:40 12.7 93 10.35 11.6 15 15 1014.7 0 23.4 29.2 47.8 125.8 124.2 428.5
14 19:30 13 93 10.55 11.9 15 15 1014.6 0 23.8 29.5 48.5 127.6 126.5 436.8
14 19:20 13.6 93 10.95 12.5 17 17 1014.3 0 24.6 30.0 49.8 131.2 131.2 453.2
14 19:10 13.8 93 11.08 12.7 15 15 1014.2 0 24.9 30.1 50.3 132.4 132.8 458.6
14 19:00 13.8 91 10.84 12.4 11 15 1014 0 24.4 29.7 49.2 129.5 129.3 446.5
14 18:50 13.8 90 10.72 12.2 7 9 1013.8 0 24.1 29.5 48.7 128.1 127.6 440.4
14 18:40 14 90 10.86 12.4 9 9 1013.7 0 24.4 29.7 49.2 129.4 129.2 446.2
14 18:30 14.5 89 11.07 12.7 7 9 1013.6 0 24.8 29.8 49.7 131.0 131.3 453.7
14 18:20 14.9 89 11.34 13.1 11 13 1013.5 0 25.4 30.2 50.7 133.4 134.5 464.7
14 18:10 15.1 87 11.22 13 9 11 1013.5 0 25.1 29.9 50.0 131.7 132.4 457.6
14 18:00 15 87 11.16 12.9 13 15 1013.5 0 25.0 29.8 49.8 131.2 131.7 455.2
14 17:50 14.9 87 11.09 12.8 13 17 1013.4 0 24.9 29.7 49.6 130.5 130.9 452.3
14 17:40 14.8 86 10.89 12.5 13 13 1013.4 0 24.4 29.4 48.8 128.4 128.2 443.0
14 17:30 14.9 85 10.83 12.4 20 24 1013.2 0 24.3 29.3 48.4 127.5 127.2 439.4
14 17:20 15 84 10.77 12.3 22 26 1013.2 0 24.2 29.1 48.1 126.7 126.2 435.9
14 17:10 15.2 84 10.9 12.5 22 26 1013.2 0 24.4 29.3 48.5 127.8 127.7 441.1
14 17:00 15.3 83 10.84 12.4 22 22 1013.1 0 24.3 29.2 48.2 127.0 126.7 437.6
14 16:50 15.4 84 11.04 12.7 15 17 1013.1 0 24.7 29.5 49.0 129.1 129.3 446.8
14 16:40 15.5 82 10.84 12.4 24 28 1013 0 24.3 29.1 48.1 126.6 126.3 436.4
14 16:30 15.7 81 10.84 12.5 20 24 1013 0 24.3 29.0 48.0 126.3 126.0 435.3
14 16:20 15.9 80 10.83 12.5 20 22 1012.9 0 24.2 28.9 47.8 125.8 125.5 433.6
14 16:10 16.1 79 10.83 12.5 22 26 1012.8 0 24.2 28.9 47.7 125.5 125.2 432.5
14 16:00 16.5 79 11.09 12.8 26 28 1012.7 0 24.8 29.2 48.5 127.8 128.1 442.8
14 15:50 16.4 80 11.17 12.9 26 28 1012.7 0 24.9 29.3 48.9 128.8 129.4 447.2
14 15:40 16.6 83 11.72 13.7 26 28 1012.6 0 26.1 30.2 51.1 134.8 136.8 473.0
14 15:30 16.6 82 11.58 13.5 26 32 1012.6 0 25.8 30.0 50.5 133.2 134.8 466.1
14 15:20 16.8 83 11.87 13.9 22 26 1012.7 0 26.4 30.4 51.7 136.1 138.5 479.2
14 15:10 16.3 84 11.65 13.6 20 24 1012.7 0 26.0 30.2 51.0 134.5 136.3 471.4
14 15:00 16.3 82 11.38 13.2 24 32 1012.7 0 25.4 29.7 49.9 131.4 132.5 458.1
14 14:50 16.5 81 11.37 13.2 26 28 1012.7 0 25.4 29.6 49.7 130.9 132.0 456.4
14 14:40 16.8 80 11.44 13.3 26 30 1012.6 0 25.5 29.7 49.8 131.2 132.5 458.0
14 14:30 16.5 81 11.37 13.2 26 35 1012.7 0 25.4 29.6 49.7 130.9 132.0 456.4
14 14:20 16.8 82 11.72 13.7 28 35 1012.6 0 26.1 30.1 51.0 134.4 136.4 471.7
14 14:10 16.9 82 11.79 13.8 26 30 1012.5 0 26.2 30.2 51.2 135.0 137.2 474.5
14 14:00 16.7 81 11.51 13.4 26 35 1012.5 0 25.7 29.8 50.2 132.2 133.6 462.0
14 13:50 16.4 81 11.3 13.1 32 35 1012.6 0 25.2 29.6 49.5 130.3 131.2 453.5
14 13:40 16.5 79 11.09 12.8 33 39 1012.7 0 24.8 29.2 48.5 127.8 128.1 442.8
14 13:30 16.8 77 11.01 12.7 35 41 1012.7 0 24.6 28.9 48.0 126.4 126.5 437.2
14 13:20 17 76 11 12.7 33 39 1012.7 0 24.5 28.8 47.8 125.9 126.0 435.6
14 13:10 16.9 76 10.93 12.6 30 33 1012.8 0 24.4 28.8 47.6 125.3 125.3 432.8
14 13:00 16.5 79 11.09 12.8 33 39 1012.7 0 24.8 29.2 48.5 127.8 128.1 442.8
14 12:50 16.6 76 10.74 12.4 33 39 1012.7 0 24.0 28.5 47.0 123.7 123.1 425.4
14 12:40 16.9 74 10.64 12.2 30 33 1012.8 0 23.8 28.3 46.4 122.1 121.3 419.0
14 12:30 16.8 80 11.44 13.3 30 35 1012.9 0 25.5 29.7 49.8 131.3 132.5 458.1
14 12:20 16.9 84 12.08 14.2 32 35 1012.8 0 26.9 30.7 52.5 138.4 141.3 489.0
14 12:10 17 85 12.3 14.5 30 32 1012.8 0 27.3 31.1 53.4 140.8 144.3 499.3
14 12:00 17 85 12.3 14.5 26 28 1012.8 0 27.3 31.1 53.4 140.8 144.3 499.3
14 11:50 16.9 87 12.51 14.7 33 35 1012.8 0 27.8 31.5 54.4 143.4 147.5 510.5
14 11:40 16.7 88 12.51 14.7 33 37 1013 0 27.8 31.6 54.5 143.8 147.9 511.9
14 11:30 16.7 90 12.79 15.1 26 30 1013.1 0 28.4 32.1 55.8 147.1 152.0 526.2
14 11:20 16.1 90 12.34 14.5 30 39 1013.2 0 27.5 31.5 54.2 143.0 146.6 507.4
14 11:10 16.2 91 12.55 14.7 30 39 1013.4 0 27.9 31.8 55.1 145.3 149.5 517.5
14 11:00 16.1 90 12.34 14.5 32 35 1013.4 0 27.5 31.5 54.2 143.0 146.7 507.5
14 10:50 16 90 12.26 14.4 30 33 1013.5 0 27.3 31.4 54.0 142.2 145.7 504.1
14 10:40 15.9 91 12.32 14.4 30 35 1013.5 0 27.4 31.6 54.3 143.1 146.8 507.8
14 10:30 15.9 92 12.46 14.6 32 35 1013.4 0 27.7 31.8 54.9 144.8 148.8 514.9
14 10:20 15.7 92 12.31 14.4 32 35 1013.5 0 27.4 31.6 54.4 143.4 147.0 508.6
14 10:10 15.5 93 12.29 14.4 28 33 1013.5 0 27.4 31.6 54.4 143.5 147.1 508.9
14 10:00 15.4 92 12.09 14.1 26 30 1013.5 0 27.0 31.3 53.6 141.3 144.4 499.4
14 09:50 15.6 92 12.23 14.3 30 33 1013.5 0 27.3 31.5 54.1 142.6 146.0 505.2
14 09:40 15.4 93 12.22 14.3 28 32 1013.4 0 27.3 31.6 54.2 142.9 146.3 506.0
14 09:30 15.2 93 12.07 14.1 26 32 1013.4 0 27.0 31.4 53.7 141.5 144.5 499.7
14 09:20 15.1 93 12 14 32 39 1013.3 0 26.8 31.3 53.4 140.8 143.6 496.7
14 09:10 15 93 11.93 13.9 28 32 1013.2 0 26.7 31.2 53.2 140.1 142.8 493.8
14 09:00 14.9 94 11.98 13.9 26 28 1013.2 0 26.8 31.3 53.5 140.9 143.7 497.0
14 08:50 14.8 94 11.91 13.8 22 26 1013.1 8 26.6 31.2 53.2 140.3 142.9 494.0
14 08:40 14.6 94 11.76 13.6 24 26 1013 8 26.3 31.0 52.7 138.8 141.0 487.6
14 08:30 14.6 93 11.64 13.5 20 22 1013.1 8 26.1 30.8 52.2 137.4 139.3 481.5
14 08:20 14.6 93 11.64 13.5 26 30 1013.1 8 26.1 30.8 52.2 137.4 139.3 481.5
14 08:10 14.6 93 11.64 13.5 22 26 1013.2 8 26.1 30.8 52.2 137.4 139.3 481.6
14 08:00 14.5 93 11.57 13.4 20 22 1013.3 8 25.9 30.7 51.9 136.8 138.5 478.7
14 07:50 14.5 93 11.57 13.4 20 24 1013.3 8 25.9 30.7 51.9 136.8 138.5 478.7
14 07:40 14.4 92 11.37 13.1 26 30 1013.3 8 25.5 30.4 51.1 134.6 135.8 469.2
14 07:30 14.4 92 11.37 13.1 22 26 1013.3 8 25.5 30.4 51.1 134.6 135.8 469.2
14 07:20 14.4 92 11.37 13.1 26 30 1013.3 8 25.5 30.4 51.1 134.6 135.8 469.2

Last Refresh: 15-Jun-2024 00:01:15

Bureau of Meteorology